sensor_id;sensor_type;location;lat;lon;timestamp;P1;durP1;ratioP1;P2;durP2;ratioP2
22983;SDS011;11658;48.908;9.140;2024-02-23T05:05:07;1.03;;;0.47;;
22983;SDS011;11658;48.908;9.140;2024-02-23T05:07:47;4.03;;;0.60;;
22983;SDS011;11658;48.908;9.140;2024-02-23T05:10:12;0.70;;;0.60;;
22983;SDS011;11658;48.908;9.140;2024-02-23T05:12:47;0.73;;;0.57;;
22983;SDS011;11658;48.908;9.140;2024-02-23T05:15:19;1.10;;;0.50;;
22983;SDS011;11658;48.908;9.140;2024-02-23T05:17:50;1.13;;;0.73;;
22983;SDS011;11658;48.908;9.140;2024-02-23T05:20:15;1.27;;;0.60;;
22983;SDS011;11658;48.908;9.140;2024-02-23T05:22:41;1.33;;;0.50;;
22983;SDS011;11658;48.908;9.140;2024-02-23T05:25:06;1.87;;;0.70;;
22983;SDS011;11658;48.908;9.140;2024-02-23T05:27:32;1.87;;;0.60;;
22983;SDS011;11658;48.908;9.140;2024-02-23T05:29:58;2.30;;;0.77;;
22983;SDS011;11658;48.908;9.140;2024-02-23T05:32:23;0.90;;;0.57;;
22983;SDS011;11658;48.908;9.140;2024-02-23T05:34:49;1.77;;;0.67;;
22983;SDS011;11658;48.908;9.140;2024-02-23T05:37:17;1.20;;;0.60;;
22983;SDS011;11658;48.908;9.140;2024-02-23T05:39:43;2.93;;;0.80;;
22983;SDS011;11658;48.908;9.140;2024-02-23T05:42:10;2.03;;;0.70;;
22983;SDS011;11658;48.908;9.140;2024-02-23T05:44:36;1.20;;;0.83;;
22983;SDS011;11658;48.908;9.140;2024-02-23T05:47:02;1.73;;;0.80;;
22983;SDS011;11658;48.908;9.140;2024-02-23T05:49:28;0.83;;;0.67;;
22983;SDS011;11658;48.908;9.140;2024-02-23T05:51:53;2.30;;;0.70;;
22983;SDS011;11658;48.908;9.140;2024-02-23T05:54:20;1.37;;;0.70;;
22983;SDS011;11658;48.908;9.140;2024-02-23T05:56:45;2.27;;;0.60;;
22983;SDS011;11658;48.908;9.140;2024-02-23T05:59:11;2.03;;;0.60;;
22983;SDS011;11658;48.908;9.140;2024-02-23T06:01:37;1.07;;;0.70;;
22983;SDS011;11658;48.908;9.140;2024-02-23T06:04:03;2.10;;;0.83;;
22983;SDS011;11658;48.908;9.140;2024-02-23T06:06:28;0.47;;;0.43;;
22983;SDS011;11658;48.908;9.140;2024-02-23T06:08:54;0.83;;;0.50;;
22983;SDS011;11658;48.908;9.140;2024-02-23T06:11:20;3.07;;;0.83;;
22983;SDS011;11658;48.908;9.140;2024-02-23T06:13:46;1.20;;;0.70;;
22983;SDS011;11658;48.908;9.140;2024-02-23T06:16:12;3.27;;;0.90;;
22983;SDS011;11658;48.908;9.140;2024-02-23T06:18:41;1.27;;;0.70;;
22983;SDS011;11658;48.908;9.140;2024-02-23T06:21:15;2.63;;;0.80;;
22983;SDS011;11658;48.908;9.140;2024-02-23T06:23:45;1.73;;;0.70;;
22983;SDS011;11658;48.908;9.140;2024-02-23T06:26:11;2.87;;;0.90;;
22983;SDS011;11658;48.908;9.140;2024-02-23T06:28:37;1.57;;;0.90;;
22983;SDS011;11658;48.908;9.140;2024-02-23T06:31:06;1.23;;;0.67;;
22983;SDS011;11658;48.908;9.140;2024-02-23T06:33:32;1.10;;;0.70;;
22983;SDS011;11658;48.908;9.140;2024-02-23T06:35:58;1.97;;;0.80;;
22983;SDS011;11658;48.908;9.140;2024-02-23T06:38:23;1.67;;;1.00;;
22983;SDS011;11658;48.908;9.140;2024-02-23T06:40:49;1.60;;;0.90;;
22983;SDS011;11658;48.908;9.140;2024-02-23T06:43:15;2.23;;;1.20;;
22983;SDS011;11658;48.908;9.140;2024-02-23T06:45:40;0.77;;;0.77;;
22983;SDS011;11658;48.908;9.140;2024-02-23T06:48:06;1.90;;;1.10;;
22983;SDS011;11658;48.908;9.140;2024-02-23T06:50:32;4.23;;;1.03;;
22983;SDS011;11658;48.908;9.140;2024-02-23T06:52:57;1.70;;;0.83;;
22983;SDS011;11658;48.908;9.140;2024-02-23T06:55:23;1.63;;;0.67;;
22983;SDS011;11658;48.908;9.140;2024-02-23T06:57:48;2.53;;;0.80;;
22983;SDS011;11658;48.908;9.140;2024-02-23T07:00:14;2.27;;;0.80;;
22983;SDS011;11658;48.908;9.140;2024-02-23T07:02:40;1.13;;;0.60;;
22983;SDS011;11658;48.908;9.140;2024-02-23T07:05:06;2.30;;;0.90;;
22983;SDS011;11658;48.908;9.140;2024-02-23T07:07:32;2.20;;;1.00;;
22983;SDS011;11658;48.908;9.140;2024-02-23T07:09:59;2.10;;;0.70;;
22983;SDS011;11658;48.908;9.140;2024-02-23T07:12:25;3.20;;;1.20;;
22983;SDS011;11658;48.908;9.140;2024-02-23T07:14:53;1.50;;;0.77;;
22983;SDS011;11658;48.908;9.140;2024-02-23T07:17:22;3.40;;;0.90;;
22983;SDS011;11658;48.908;9.140;2024-02-23T07:19:48;1.57;;;1.00;;
22983;SDS011;11658;48.908;9.140;2024-02-23T07:22:15;1.57;;;0.90;;
22983;SDS011;11658;48.908;9.140;2024-02-23T07:24:43;1.37;;;0.70;;
22983;SDS011;11658;48.908;9.140;2024-02-23T07:27:08;0.93;;;0.60;;
22983;SDS011;11658;48.908;9.140;2024-02-23T07:29:34;1.30;;;0.80;;
22983;SDS011;11658;48.908;9.140;2024-02-23T07:32:00;1.33;;;0.87;;
22983;SDS011;11658;48.908;9.140;2024-02-23T07:34:26;2.70;;;0.90;;
22983;SDS011;11658;48.908;9.140;2024-02-23T07:36:52;1.07;;;0.70;;
22983;SDS011;11658;48.908;9.140;2024-02-23T07:39:18;1.53;;;0.80;;
22983;SDS011;11658;48.908;9.140;2024-02-23T07:41:44;2.70;;;1.57;;
22983;SDS011;11658;48.908;9.140;2024-02-23T07:44:10;9.20;;;3.87;;
22983;SDS011;11658;48.908;9.140;2024-02-23T07:46:35;6.20;;;3.30;;
22983;SDS011;11658;48.908;9.140;2024-02-23T07:49:01;6.13;;;4.30;;
22983;SDS011;11658;48.908;9.140;2024-02-23T07:51:27;6.50;;;3.90;;
22983;SDS011;11658;48.908;9.140;2024-02-23T07:53:53;3.80;;;2.17;;
22983;SDS011;11658;48.908;9.140;2024-02-23T07:56:20;2.37;;;1.67;;
22983;SDS011;11658;48.908;9.140;2024-02-23T07:58:45;1.60;;;1.20;;
22983;SDS011;11658;48.908;9.140;2024-02-23T08:01:11;2.80;;;1.10;;
22983;SDS011;11658;48.908;9.140;2024-02-23T08:03:39;3.53;;;1.30;;
22983;SDS011;11658;48.908;9.140;2024-02-23T08:06:05;1.43;;;0.90;;
22983;SDS011;11658;48.908;9.140;2024-02-23T08:08:30;2.17;;;0.80;;
22983;SDS011;11658;48.908;9.140;2024-02-23T08:10:59;4.33;;;1.37;;
22983;SDS011;11658;48.908;9.140;2024-02-23T08:13:28;1.00;;;0.90;;
22983;SDS011;11658;48.908;9.140;2024-02-23T08:15:54;1.60;;;1.00;;
22983;SDS011;11658;48.908;9.140;2024-02-23T08:18:20;2.73;;;1.20;;
22983;SDS011;11658;48.908;9.140;2024-02-23T08:20:47;1.87;;;1.00;;
22983;SDS011;11658;48.908;9.140;2024-02-23T08:23:13;1.70;;;1.00;;
22983;SDS011;11658;48.908;9.140;2024-02-23T08:25:38;3.50;;;1.10;;
22983;SDS011;11658;48.908;9.140;2024-02-23T08:28:04;1.70;;;1.00;;
22983;SDS011;11658;48.908;9.140;2024-02-23T08:30:29;1.97;;;1.10;;
22983;SDS011;11658;48.908;9.140;2024-02-23T08:32:55;4.87;;;1.27;;
22983;SDS011;11658;48.908;9.140;2024-02-23T08:35:24;1.67;;;1.00;;
22983;SDS011;11658;48.908;9.140;2024-02-23T08:37:50;2.93;;;1.03;;
22983;SDS011;11658;48.908;9.140;2024-02-23T08:40:15;2.20;;;0.80;;
22983;SDS011;11658;48.908;9.140;2024-02-23T08:42:41;4.90;;;1.80;;
22983;SDS011;11658;48.908;9.140;2024-02-23T08:45:07;5.67;;;3.03;;
22983;SDS011;11658;48.908;9.140;2024-02-23T08:47:34;5.50;;;2.33;;
22983;SDS011;11658;48.908;9.140;2024-02-23T08:50:00;3.50;;;1.70;;
22983;SDS011;11658;48.908;9.140;2024-02-23T08:52:26;1.97;;;1.50;;
22983;SDS011;11658;48.908;9.140;2024-02-23T08:54:52;2.43;;;1.20;;
22983;SDS011;11658;48.908;9.140;2024-02-23T08:57:17;4.37;;;1.70;;
22983;SDS011;11658;48.908;9.140;2024-02-23T08:59:48;3.27;;;1.30;;
22983;SDS011;11658;48.908;9.140;2024-02-23T09:02:14;4.53;;;2.30;;
22983;SDS011;11658;48.908;9.140;2024-02-23T09:04:39;3.73;;;2.10;;
22983;SDS011;11658;48.908;9.140;2024-02-23T09:07:05;3.30;;;1.60;;
22983;SDS011;11658;48.908;9.140;2024-02-23T09:09:31;2.77;;;1.93;;
22983;SDS011;11658;48.908;9.140;2024-02-23T09:11:56;2.30;;;1.47;;
22983;SDS011;11658;48.908;9.140;2024-02-23T09:14:22;1.73;;;1.00;;
22983;SDS011;11658;48.908;9.140;2024-02-23T09:16:48;1.10;;;1.00;;
22983;SDS011;11658;48.908;9.140;2024-02-23T09:19:19;1.90;;;0.80;;
22983;SDS011;11658;48.908;9.140;2024-02-23T09:21:45;2.00;;;0.90;;
22983;SDS011;11658;48.908;9.140;2024-02-23T09:24:11;2.00;;;1.00;;
22983;SDS011;11658;48.908;9.140;2024-02-23T09:26:37;1.50;;;0.90;;
22983;SDS011;11658;48.908;9.140;2024-02-23T09:29:04;2.47;;;1.07;;
22983;SDS011;11658;48.908;9.140;2024-02-23T09:31:29;2.27;;;1.20;;
22983;SDS011;11658;48.908;9.140;2024-02-23T09:33:56;3.07;;;0.90;;
22983;SDS011;11658;48.908;9.140;2024-02-23T09:36:22;2.47;;;1.17;;
22983;SDS011;11658;48.908;9.140;2024-02-23T09:38:48;1.47;;;0.90;;
22983;SDS011;11658;48.908;9.140;2024-02-23T09:41:18;1.87;;;1.20;;
22983;SDS011;11658;48.908;9.140;2024-02-23T09:43:46;3.83;;;1.03;;
22983;SDS011;11658;48.908;9.140;2024-02-23T09:46:13;2.37;;;1.20;;
22983;SDS011;11658;48.908;9.140;2024-02-23T09:48:40;1.97;;;0.83;;
22983;SDS011;11658;48.908;9.140;2024-02-23T09:51:08;3.30;;;1.10;;
22983;SDS011;11658;48.908;9.140;2024-02-23T09:53:36;4.83;;;1.40;;
22983;SDS011;11658;48.908;9.140;2024-02-23T09:56:03;2.53;;;1.30;;
22983;SDS011;11658;48.908;9.140;2024-02-23T09:58:30;3.77;;;1.20;;
22983;SDS011;11658;48.908;9.140;2024-02-23T10:00:57;3.77;;;0.90;;
22983;SDS011;11658;48.908;9.140;2024-02-23T10:03:24;2.00;;;0.90;;
22983;SDS011;11658;48.908;9.140;2024-02-23T10:05:52;3.53;;;1.10;;
22983;SDS011;11658;48.908;9.140;2024-02-23T10:08:17;4.03;;;1.10;;
22983;SDS011;11658;48.908;9.140;2024-02-23T10:10:45;2.63;;;0.90;;
22983;SDS011;11658;48.908;9.140;2024-02-23T10:13:11;1.90;;;0.90;;
22983;SDS011;11658;48.908;9.140;2024-02-23T10:15:37;3.23;;;1.13;;
22983;SDS011;11658;48.908;9.140;2024-02-23T10:18:03;1.77;;;1.07;;
22983;SDS011;11658;48.908;9.140;2024-02-23T10:20:29;1.77;;;0.97;;
22983;SDS011;11658;48.908;9.140;2024-02-23T10:22:55;3.63;;;1.00;;
22983;SDS011;11658;48.908;9.140;2024-02-23T10:25:21;3.20;;;1.07;;
22983;SDS011;11658;48.908;9.140;2024-02-23T10:27:48;6.63;;;1.20;;
22983;SDS011;11658;48.908;9.140;2024-02-23T10:30:14;2.37;;;1.10;;
22983;SDS011;11658;48.908;9.140;2024-02-23T10:32:40;1.53;;;0.73;;
22983;SDS011;11658;48.908;9.140;2024-02-23T10:35:16;2.77;;;0.90;;
22983;SDS011;11658;48.908;9.140;2024-02-23T10:37:42;1.97;;;1.00;;
22983;SDS011;11658;48.908;9.140;2024-02-23T10:40:11;3.10;;;1.03;;
22983;SDS011;11658;48.908;9.140;2024-02-23T10:42:38;1.33;;;0.90;;
22983;SDS011;11658;48.908;9.140;2024-02-23T10:45:06;4.47;;;1.10;;
22983;SDS011;11658;48.908;9.140;2024-02-23T10:47:33;6.27;;;1.20;;
22983;SDS011;11658;48.908;9.140;2024-02-23T10:50:00;2.27;;;0.80;;
22983;SDS011;11658;48.908;9.140;2024-02-23T10:52:27;1.13;;;0.83;;
22983;SDS011;11658;48.908;9.140;2024-02-23T10:54:53;4.50;;;0.90;;
22983;SDS011;11658;48.908;9.140;2024-02-23T10:57:20;2.03;;;0.73;;
22983;SDS011;11658;48.908;9.140;2024-02-23T10:59:46;2.07;;;0.80;;
22983;SDS011;11658;48.908;9.140;2024-02-23T11:02:13;2.30;;;0.90;;
22983;SDS011;11658;48.908;9.140;2024-02-23T11:04:43;2.17;;;1.07;;
22983;SDS011;11658;48.908;9.140;2024-02-23T11:07:15;2.73;;;0.90;;
22983;SDS011;11658;48.908;9.140;2024-02-23T11:09:52;1.90;;;0.80;;
22983;SDS011;11658;48.908;9.140;2024-02-23T11:12:25;2.57;;;0.93;;
22983;SDS011;11658;48.908;9.140;2024-02-23T11:14:51;1.43;;;0.80;;
22983;SDS011;11658;48.908;9.140;2024-02-23T11:17:22;3.13;;;1.13;;
22983;SDS011;11658;48.908;9.140;2024-02-23T11:19:51;3.53;;;1.00;;
22983;SDS011;11658;48.908;9.140;2024-02-23T11:22:26;3.50;;;0.90;;
22983;SDS011;11658;48.908;9.140;2024-02-23T11:24:53;2.33;;;0.80;;
22983;SDS011;11658;48.908;9.140;2024-02-23T11:27:24;2.67;;;0.80;;
22983;SDS011;11658;48.908;9.140;2024-02-23T11:30:05;1.87;;;1.10;;
22983;SDS011;11658;48.908;9.140;2024-02-23T11:32:43;3.00;;;1.00;;
22983;SDS011;11658;48.908;9.140;2024-02-23T11:35:16;2.60;;;0.90;;
22983;SDS011;11658;48.908;9.140;2024-02-23T11:37:47;4.33;;;0.97;;
22983;SDS011;11658;48.908;9.140;2024-02-23T11:40:14;4.10;;;1.27;;
22983;SDS011;11658;48.908;9.140;2024-02-23T11:42:42;5.63;;;1.00;;
22983;SDS011;11658;48.908;9.140;2024-02-23T11:45:09;1.70;;;0.80;;
22983;SDS011;11658;48.908;9.140;2024-02-23T11:47:36;0.83;;;0.70;;
22983;SDS011;11658;48.908;9.140;2024-02-23T11:50:02;3.13;;;0.93;;
22983;SDS011;11658;48.908;9.140;2024-02-23T11:52:28;2.73;;;1.23;;
22983;SDS011;11658;48.908;9.140;2024-02-23T11:54:55;4.87;;;1.23;;
22983;SDS011;11658;48.908;9.140;2024-02-23T11:57:21;6.33;;;0.80;;
22983;SDS011;11658;48.908;9.140;2024-02-23T11:59:47;1.90;;;0.93;;
22983;SDS011;11658;48.908;9.140;2024-02-23T12:02:12;4.67;;;1.17;;
22983;SDS011;11658;48.908;9.140;2024-02-23T12:04:38;2.67;;;1.00;;
22983;SDS011;11658;48.908;9.140;2024-02-23T12:07:04;1.60;;;0.83;;
22983;SDS011;11658;48.908;9.140;2024-02-23T12:09:29;3.27;;;1.10;;
22983;SDS011;11658;48.908;9.140;2024-02-23T12:11:55;5.07;;;1.20;;
22983;SDS011;11658;48.908;9.140;2024-02-23T12:14:21;2.33;;;0.93;;
22983;SDS011;11658;48.908;9.140;2024-02-23T12:16:46;3.33;;;1.17;;
22983;SDS011;11658;48.908;9.140;2024-02-23T12:19:12;4.23;;;1.13;;
22983;SDS011;11658;48.908;9.140;2024-02-23T12:21:37;3.93;;;1.13;;
22983;SDS011;11658;48.908;9.140;2024-02-23T12:24:06;4.33;;;1.20;;
22983;SDS011;11658;48.908;9.140;2024-02-23T12:26:35;4.43;;;1.10;;
22983;SDS011;11658;48.908;9.140;2024-02-23T12:29:01;1.90;;;1.10;;
22983;SDS011;11658;48.908;9.140;2024-02-23T12:31:28;3.80;;;1.23;;
22983;SDS011;11658;48.908;9.140;2024-02-23T12:33:54;4.00;;;1.53;;
22983;SDS011;11658;48.908;9.140;2024-02-23T12:36:21;4.00;;;0.90;;
22983;SDS011;11658;48.908;9.140;2024-02-23T12:38:48;2.93;;;1.13;;
22983;SDS011;11658;48.908;9.140;2024-02-23T12:41:14;2.47;;;1.30;;
22983;SDS011;11658;48.908;9.140;2024-02-23T12:43:39;2.80;;;0.93;;
22983;SDS011;11658;48.908;9.140;2024-02-23T12:46:05;3.13;;;1.00;;
22983;SDS011;11658;48.908;9.140;2024-02-23T12:48:31;3.87;;;1.00;;
22983;SDS011;11658;48.908;9.140;2024-02-23T12:50:57;2.20;;;0.90;;
22983;SDS011;11658;48.908;9.140;2024-02-23T12:56:21;3.20;;;1.10;;
22983;SDS011;11658;48.908;9.140;2024-02-23T12:58:47;2.80;;;1.10;;
22983;SDS011;11658;48.908;9.140;2024-02-23T13:01:13;2.97;;;1.00;;
22983;SDS011;11658;48.908;9.140;2024-02-23T13:03:38;2.63;;;0.90;;
22983;SDS011;11658;48.908;9.140;2024-02-23T13:06:07;2.57;;;1.13;;
22983;SDS011;11658;48.908;9.140;2024-02-23T13:08:33;3.77;;;1.00;;
22983;SDS011;11658;48.908;9.140;2024-02-23T13:10:59;2.67;;;1.17;;
22983;SDS011;11658;48.908;9.140;2024-02-23T13:13:25;2.40;;;1.07;;
22983;SDS011;11658;48.908;9.140;2024-02-23T13:15:52;2.53;;;0.97;;
22983;SDS011;11658;48.908;9.140;2024-02-23T13:18:18;3.60;;;1.27;;
22983;SDS011;11658;48.908;9.140;2024-02-23T13:20:44;1.40;;;1.00;;
22983;SDS011;11658;48.908;9.140;2024-02-23T13:23:10;2.67;;;1.13;;
22983;SDS011;11658;48.908;9.140;2024-02-23T13:25:39;3.10;;;1.10;;
22983;SDS011;11658;48.908;9.140;2024-02-23T13:28:05;3.03;;;1.20;;
22983;SDS011;11658;48.908;9.140;2024-02-23T13:30:32;2.20;;;0.90;;
22983;SDS011;11658;48.908;9.140;2024-02-23T13:32:58;4.77;;;1.30;;
22983;SDS011;11658;48.908;9.140;2024-02-23T13:35:25;3.87;;;1.13;;
22983;SDS011;11658;48.908;9.140;2024-02-23T13:37:51;1.07;;;0.80;;
22983;SDS011;11658;48.908;9.140;2024-02-23T13:40:17;2.80;;;1.00;;
22983;SDS011;11658;48.908;9.140;2024-02-23T13:42:42;2.27;;;1.00;;
22983;SDS011;11658;48.908;9.140;2024-02-23T13:45:11;1.93;;;1.00;;
22983;SDS011;11658;48.908;9.140;2024-02-23T13:47:39;3.37;;;1.17;;
22983;SDS011;11658;48.908;9.140;2024-02-23T13:50:05;2.17;;;1.10;;
22983;SDS011;11658;48.908;9.140;2024-02-23T13:52:31;4.47;;;1.07;;
22983;SDS011;11658;48.908;9.140;2024-02-23T13:54:56;4.73;;;1.13;;
22983;SDS011;11658;48.908;9.140;2024-02-23T13:57:22;4.07;;;1.33;;
22983;SDS011;11658;48.908;9.140;2024-02-23T13:59:48;2.20;;;1.00;;
22983;SDS011;11658;48.908;9.140;2024-02-23T14:02:13;3.50;;;1.33;;
22983;SDS011;11658;48.908;9.140;2024-02-23T14:04:39;2.27;;;1.03;;
22983;SDS011;11658;48.908;9.140;2024-02-23T14:07:06;3.83;;;1.00;;
22983;SDS011;11658;48.908;9.140;2024-02-23T14:09:32;2.27;;;1.13;;
22983;SDS011;11658;48.908;9.140;2024-02-23T14:11:58;3.57;;;1.13;;
22983;SDS011;11658;48.908;9.140;2024-02-23T14:14:24;2.70;;;0.83;;
22983;SDS011;11658;48.908;9.140;2024-02-23T14:16:49;2.33;;;1.10;;
22983;SDS011;11658;48.908;9.140;2024-02-23T14:19:15;2.77;;;1.03;;
22983;SDS011;11658;48.908;9.140;2024-02-23T14:21:40;2.20;;;1.03;;
22983;SDS011;11658;48.908;9.140;2024-02-23T14:24:06;2.30;;;1.20;;
22983;SDS011;11658;48.908;9.140;2024-02-23T14:26:32;3.20;;;1.13;;
22983;SDS011;11658;48.908;9.140;2024-02-23T14:28:58;3.13;;;1.30;;
22983;SDS011;11658;48.908;9.140;2024-02-23T14:31:24;2.90;;;1.10;;
22983;SDS011;11658;48.908;9.140;2024-02-23T14:33:50;3.23;;;1.40;;
22983;SDS011;11658;48.908;9.140;2024-02-23T14:36:16;2.53;;;1.07;;
22983;SDS011;11658;48.908;9.140;2024-02-23T14:38:42;3.43;;;1.13;;
22983;SDS011;11658;48.908;9.140;2024-02-23T14:41:08;5.03;;;1.37;;
22983;SDS011;11658;48.908;9.140;2024-02-23T14:43:35;1.80;;;1.10;;
22983;SDS011;11658;48.908;9.140;2024-02-23T14:46:04;2.40;;;1.03;;
22983;SDS011;11658;48.908;9.140;2024-02-23T14:48:30;3.27;;;1.30;;
22983;SDS011;11658;48.908;9.140;2024-02-23T14:50:56;3.07;;;1.30;;
22983;SDS011;11658;48.908;9.140;2024-02-23T14:53:22;2.90;;;1.40;;
22983;SDS011;11658;48.908;9.140;2024-02-23T14:55:48;3.77;;;1.27;;
22983;SDS011;11658;48.908;9.140;2024-02-23T14:58:14;5.20;;;1.00;;
22983;SDS011;11658;48.908;9.140;2024-02-23T15:00:40;4.30;;;1.50;;
22983;SDS011;11658;48.908;9.140;2024-02-23T15:03:05;3.33;;;1.40;;
22983;SDS011;11658;48.908;9.140;2024-02-23T15:05:33;3.63;;;1.27;;
22983;SDS011;11658;48.908;9.140;2024-02-23T15:07:59;2.80;;;1.47;;
22983;SDS011;11658;48.908;9.140;2024-02-23T15:10:25;3.27;;;1.30;;
22983;SDS011;11658;48.908;9.140;2024-02-23T15:12:50;4.43;;;1.40;;
22983;SDS011;11658;48.908;9.140;2024-02-23T15:15:16;5.27;;;1.30;;
22983;SDS011;11658;48.908;9.140;2024-02-23T15:17:42;3.10;;;1.40;;
22983;SDS011;11658;48.908;9.140;2024-02-23T15:20:10;3.90;;;1.53;;
22983;SDS011;11658;48.908;9.140;2024-02-23T15:22:36;7.57;;;1.50;;
22983;SDS011;11658;48.908;9.140;2024-02-23T15:25:07;3.27;;;1.43;;
22983;SDS011;11658;48.908;9.140;2024-02-23T15:27:33;3.07;;;1.33;;
22983;SDS011;11658;48.908;9.140;2024-02-23T15:29:59;3.13;;;1.27;;
22983;SDS011;11658;48.908;9.140;2024-02-23T15:32:25;2.53;;;1.30;;
22983;SDS011;11658;48.908;9.140;2024-02-23T15:34:51;2.90;;;1.20;;
22983;SDS011;11658;48.908;9.140;2024-02-23T15:37:16;2.53;;;1.07;;
22983;SDS011;11658;48.908;9.140;2024-02-23T15:39:42;4.60;;;1.30;;
22983;SDS011;11658;48.908;9.140;2024-02-23T15:42:08;3.17;;;1.13;;
22983;SDS011;11658;48.908;9.140;2024-02-23T15:44:34;4.27;;;1.33;;
22983;SDS011;11658;48.908;9.140;2024-02-23T15:46:59;3.90;;;1.37;;
22983;SDS011;11658;48.908;9.140;2024-02-23T15:49:25;3.63;;;1.10;;
22983;SDS011;11658;48.908;9.140;2024-02-23T15:51:50;4.87;;;1.40;;
22983;SDS011;11658;48.908;9.140;2024-02-23T15:54:16;3.73;;;1.27;;
22983;SDS011;11658;48.908;9.140;2024-02-23T15:56:42;1.67;;;1.00;;
22983;SDS011;11658;48.908;9.140;2024-02-23T15:59:08;2.70;;;1.30;;
22983;SDS011;11658;48.908;9.140;2024-02-23T16:01:36;4.70;;;1.30;;
22983;SDS011;11658;48.908;9.140;2024-02-23T16:04:03;2.97;;;1.00;;
22983;SDS011;11658;48.908;9.140;2024-02-23T16:06:29;1.90;;;1.40;;
22983;SDS011;11658;48.908;9.140;2024-02-23T16:08:58;4.37;;;1.20;;
22983;SDS011;11658;48.908;9.140;2024-02-23T16:11:24;3.43;;;1.10;;
22983;SDS011;11658;48.908;9.140;2024-02-23T16:13:50;2.70;;;1.07;;
22983;SDS011;11658;48.908;9.140;2024-02-23T16:16:16;2.20;;;0.90;;
22983;SDS011;11658;48.908;9.140;2024-02-23T16:18:42;3.60;;;1.23;;
22983;SDS011;11658;48.908;9.140;2024-02-23T16:21:08;3.23;;;1.20;;
22983;SDS011;11658;48.908;9.140;2024-02-23T16:23:35;2.90;;;1.00;;
22983;SDS011;11658;48.908;9.140;2024-02-23T16:26:00;3.40;;;1.30;;
22983;SDS011;11658;48.908;9.140;2024-02-23T16:28:26;3.90;;;1.10;;
22983;SDS011;11658;48.908;9.140;2024-02-23T16:30:52;4.67;;;1.40;;
22983;SDS011;11658;48.908;9.140;2024-02-23T16:33:17;2.30;;;1.10;;
22983;SDS011;11658;48.908;9.140;2024-02-23T16:35:43;3.97;;;1.40;;
22983;SDS011;11658;48.908;9.140;2024-02-23T16:38:09;3.97;;;1.10;;
22983;SDS011;11658;48.908;9.140;2024-02-23T16:40:34;3.03;;;1.40;;
22983;SDS011;11658;48.908;9.140;2024-02-23T16:43:00;4.43;;;1.37;;
22983;SDS011;11658;48.908;9.140;2024-02-23T16:45:26;3.03;;;1.30;;
22983;SDS011;11658;48.908;9.140;2024-02-23T16:47:52;3.80;;;1.43;;
22983;SDS011;11658;48.908;9.140;2024-02-23T16:50:19;4.13;;;1.50;;
22983;SDS011;11658;48.908;9.140;2024-02-23T16:52:47;4.67;;;1.60;;
22983;SDS011;11658;48.908;9.140;2024-02-23T16:55:15;6.27;;;2.10;;
22983;SDS011;11658;48.908;9.140;2024-02-23T16:57:40;4.77;;;2.00;;
22983;SDS011;11658;48.908;9.140;2024-02-23T17:00:06;3.97;;;1.63;;
22983;SDS011;11658;48.908;9.140;2024-02-23T17:02:32;5.70;;;1.63;;
22983;SDS011;11658;48.908;9.140;2024-02-23T17:04:58;2.37;;;1.47;;
22983;SDS011;11658;48.908;9.140;2024-02-23T17:07:28;3.03;;;1.33;;
22983;SDS011;11658;48.908;9.140;2024-02-23T17:09:55;2.43;;;1.57;;
22983;SDS011;11658;48.908;9.140;2024-02-23T17:12:22;3.03;;;1.33;;
22983;SDS011;11658;48.908;9.140;2024-02-23T17:14:48;3.50;;;1.70;;
22983;SDS011;11658;48.908;9.140;2024-02-23T17:17:14;3.77;;;1.90;;
22983;SDS011;11658;48.908;9.140;2024-02-23T17:19:40;4.57;;;1.97;;
22983;SDS011;11658;48.908;9.140;2024-02-23T17:22:07;3.97;;;1.77;;
22983;SDS011;11658;48.908;9.140;2024-02-23T17:24:33;4.13;;;1.70;;
22983;SDS011;11658;48.908;9.140;2024-02-23T17:26:59;5.63;;;1.67;;
22983;SDS011;11658;48.908;9.140;2024-02-23T17:29:25;4.07;;;1.77;;
22983;SDS011;11658;48.908;9.140;2024-02-23T17:31:51;4.77;;;2.00;;
22983;SDS011;11658;48.908;9.140;2024-02-23T17:34:17;5.20;;;1.90;;
22983;SDS011;11658;48.908;9.140;2024-02-23T17:36:42;3.00;;;1.53;;
22983;SDS011;11658;48.908;9.140;2024-02-23T17:39:10;4.30;;;1.40;;
22983;SDS011;11658;48.908;9.140;2024-02-23T17:41:37;5.50;;;1.53;;
22983;SDS011;11658;48.908;9.140;2024-02-23T17:44:02;3.47;;;1.40;;
22983;SDS011;11658;48.908;9.140;2024-02-23T17:46:28;3.53;;;1.50;;
22983;SDS011;11658;48.908;9.140;2024-02-23T17:48:54;4.03;;;1.40;;
22983;SDS011;11658;48.908;9.140;2024-02-23T17:51:20;3.27;;;1.67;;
22983;SDS011;11658;48.908;9.140;2024-02-23T17:53:45;3.20;;;2.40;;
22983;SDS011;11658;48.908;9.140;2024-02-23T17:56:11;3.60;;;2.23;;
22983;SDS011;11658;48.908;9.140;2024-02-23T17:58:36;4.07;;;2.03;;
22983;SDS011;11658;48.908;9.140;2024-02-23T18:01:03;5.60;;;1.90;;
22983;SDS011;11658;48.908;9.140;2024-02-23T18:03:28;5.63;;;2.13;;
22983;SDS011;11658;48.908;9.140;2024-02-23T18:05:55;3.30;;;2.00;;
22983;SDS011;11658;48.908;9.140;2024-02-23T18:08:21;14.47;;;8.97;;
22983;SDS011;11658;48.908;9.140;2024-02-23T18:10:47;4.57;;;2.70;;
22983;SDS011;11658;48.908;9.140;2024-02-23T18:13:13;4.83;;;2.30;;
22983;SDS011;11658;48.908;9.140;2024-02-23T18:15:39;4.37;;;2.30;;
22983;SDS011;11658;48.908;9.140;2024-02-23T18:18:05;4.20;;;2.03;;
22983;SDS011;11658;48.908;9.140;2024-02-23T18:20:31;4.93;;;2.00;;
22983;SDS011;11658;48.908;9.140;2024-02-23T18:22:56;3.43;;;1.80;;
22983;SDS011;11658;48.908;9.140;2024-02-23T18:25:22;5.97;;;1.93;;
22983;SDS011;11658;48.908;9.140;2024-02-23T18:27:48;3.60;;;1.87;;
22983;SDS011;11658;48.908;9.140;2024-02-23T18:30:14;5.50;;;2.30;;
22983;SDS011;11658;48.908;9.140;2024-02-23T18:32:40;4.27;;;2.30;;
22983;SDS011;11658;48.908;9.140;2024-02-23T18:35:06;4.43;;;2.60;;
22983;SDS011;11658;48.908;9.140;2024-02-23T18:37:33;4.47;;;2.40;;
22983;SDS011;11658;48.908;9.140;2024-02-23T18:39:59;3.00;;;2.13;;
22983;SDS011;11658;48.908;9.140;2024-02-23T18:42:24;3.43;;;2.03;;
22983;SDS011;11658;48.908;9.140;2024-02-23T18:44:50;5.70;;;2.10;;
22983;SDS011;11658;48.908;9.140;2024-02-23T18:47:16;4.07;;;1.90;;
22983;SDS011;11658;48.908;9.140;2024-02-23T18:49:42;4.07;;;1.70;;
22983;SDS011;11658;48.908;9.140;2024-02-23T18:52:07;2.43;;;1.57;;
22983;SDS011;11658;48.908;9.140;2024-02-23T18:54:34;4.77;;;1.70;;
22983;SDS011;11658;48.908;9.140;2024-02-23T18:57:00;3.97;;;1.90;;
22983;SDS011;11658;48.908;9.140;2024-02-23T18:59:26;2.90;;;1.57;;
22983;SDS011;11658;48.908;9.140;2024-02-23T19:01:52;2.50;;;1.40;;
22983;SDS011;11658;48.908;9.140;2024-02-23T19:04:18;3.93;;;1.40;;
22983;SDS011;11658;48.908;9.140;2024-02-23T19:06:43;2.83;;;1.43;;
22983;SDS011;11658;48.908;9.140;2024-02-23T19:09:10;2.47;;;1.40;;
22983;SDS011;11658;48.908;9.140;2024-02-23T19:11:35;4.23;;;1.60;;
22983;SDS011;11658;48.908;9.140;2024-02-23T19:14:01;4.07;;;2.40;;
22983;SDS011;11658;48.908;9.140;2024-02-23T19:16:26;4.37;;;1.50;;
22983;SDS011;11658;48.908;9.140;2024-02-23T19:18:52;4.33;;;1.30;;
22983;SDS011;11658;48.908;9.140;2024-02-23T19:21:18;3.10;;;1.70;;
22983;SDS011;11658;48.908;9.140;2024-02-23T19:23:44;2.83;;;1.47;;
22983;SDS011;11658;48.908;9.140;2024-02-23T19:26:10;2.90;;;1.50;;
22983;SDS011;11658;48.908;9.140;2024-02-23T19:28:35;2.80;;;1.80;;
22983;SDS011;11658;48.908;9.140;2024-02-23T19:31:01;2.97;;;1.70;;
22983;SDS011;11658;48.908;9.140;2024-02-23T19:33:27;4.50;;;2.00;;
22983;SDS011;11658;48.908;9.140;2024-02-23T19:35:56;3.17;;;1.47;;
22983;SDS011;11658;48.908;9.140;2024-02-23T19:38:22;3.87;;;1.67;;
22983;SDS011;11658;48.908;9.140;2024-02-23T19:40:48;2.67;;;1.60;;
22983;SDS011;11658;48.908;9.140;2024-02-23T19:43:17;4.23;;;1.70;;
22983;SDS011;11658;48.908;9.140;2024-02-23T19:45:42;3.27;;;1.43;;
22983;SDS011;11658;48.908;9.140;2024-02-23T19:48:08;2.50;;;1.63;;
22983;SDS011;11658;48.908;9.140;2024-02-23T19:50:34;4.07;;;1.80;;